Time;durP1;ratioP1;P1;durP2;ratioP2;P2;SDS_P1;SDS_P2;PMS_P1;PMS_P2;Temp;Humidity;BMP_temperature;BMP_pressure;BME280_temperature;BME280_humidity;BME280_pressure;Samples;Min_cycle;Max_cycle;Signal;HPM_P1;HPM_P2
2022/05/30 00:00:22;;;;;;;2.20;2.00;;;6.60;99.10;;;;;;4969271;28;20212;-84
2022/05/30 00:02:58;;;;;;;2.90;2.30;;;6.60;99.20;;;;;;4969057;28;20201;-85
2022/05/30 00:05:34;;;;;;;2.00;1.90;;;6.50;98.90;;;;;;4963732;28;20289;-84
2022/05/30 00:08:11;;;;;;;2.50;2.30;;;6.50;99.00;;;;;;4959706;28;20209;-85
2022/05/30 00:10:45;;;;;;;2.37;1.93;;;6.40;99.00;;;;;;4963067;28;20219;-85
2022/05/30 00:13:14;;;;;;;2.40;2.00;;;6.30;99.20;;;;;;4967722;28;20213;-85
2022/05/30 00:15:41;;;;;;;2.47;1.80;;;6.30;99.50;;;;;;4965765;28;20204;-84
2022/05/30 00:18:09;;;;;;;2.40;1.97;;;6.30;99.60;;;;;;4972256;28;20205;-85
2022/05/30 00:20:58;;;;;;;2.17;1.90;;;6.40;99.50;;;;;;4970497;28;20201;-84
2022/05/30 00:23:30;;;;;;;3.57;1.90;;;6.40;99.20;;;;;;4961265;28;20637;-84
2022/05/30 00:26:16;;;;;;;2.00;1.87;;;6.30;98.90;;;;;;4969290;28;20219;-84
2022/05/30 00:28:48;;;;;;;2.30;2.10;;;6.30;99.10;;;;;;4964032;28;20212;-84
2022/05/30 00:31:18;;;;;;;2.30;2.10;;;6.30;99.50;;;;;;4965937;28;20223;-84
2022/05/30 00:33:46;;;;;;;2.13;1.90;;;6.30;99.30;;;;;;4971823;28;20209;-85
2022/05/30 00:36:13;;;;;;;2.40;2.00;;;6.40;99.20;;;;;;4963805;28;20248;-88
2022/05/30 00:38:48;;;;;;;3.90;1.80;;;6.40;99.10;;;;;;4968187;28;20272;-84
2022/05/30 00:41:16;;;;;;;2.63;2.27;;;6.40;99.30;;;;;;4968807;28;20284;-84
2022/05/30 00:43:45;;;;;;;3.27;2.00;;;6.30;98.90;;;;;;4963347;28;20208;-84
2022/05/30 00:46:27;;;;;;;2.20;2.00;;;6.20;98.90;;;;;;4968460;28;20646;-85
2022/05/30 00:49:01;;;;;;;4.73;1.80;;;6.10;99.00;;;;;;4968156;28;20193;-84
2022/05/30 00:51:37;;;;;;;2.43;2.00;;;6.20;99.40;;;;;;4963391;28;20235;-85
2022/05/30 00:54:11;;;;;;;2.47;1.80;;;6.20;99.20;;;;;;4953012;28;20210;-84
2022/05/30 00:56:43;;;;;;;2.27;1.73;;;6.20;99.10;;;;;;4966509;28;20248;-85
2022/05/30 00:59:11;;;;;;;2.50;1.90;;;6.20;98.80;;;;;;4951448;29;20216;-84
2022/05/30 01:01:40;;;;;;;3.83;1.80;;;6.20;98.60;;;;;;4966321;28;20680;-84
2022/05/30 01:07:10;;;;;;;2.13;1.90;;;6.00;98.60;;;;;;4967946;28;20236;-84
2022/05/30 01:09:41;;;;;;;1.83;1.73;;;5.90;99.00;;;;;;4965357;28;20201;-84
2022/05/30 01:12:10;;;;;;;2.20;1.90;;;5.90;99.10;;;;;;4963212;28;20733;-84
2022/05/30 01:14:46;;;;;;;2.20;2.00;;;5.90;99.00;;;;;;4964252;28;20243;-85
2022/05/30 01:17:15;;;;;;;2.23;2.03;;;5.80;99.40;;;;;;4960825;28;20263;-86
2022/05/30 01:19:56;;;;;;;1.60;1.50;;;5.70;99.20;;;;;;4968058;28;20218;-84
2022/05/30 01:23:07;;;;;;;1.93;1.80;;;5.70;99.30;;;;;;4963806;28;20217;-85
2022/05/30 01:26:18;;;;;;;3.53;2.00;;;5.70;99.40;;;;;;4900646;29;20249;-86
2022/05/30 01:29:03;;;;;;;1.73;1.63;;;5.70;99.50;;;;;;4886265;29;20218;-84
2022/05/30 01:31:45;;;;;;;1.77;1.67;;;5.70;99.40;;;;;;4878996;29;20212;-84
2022/05/30 01:34:13;;;;;;;1.97;1.87;;;5.80;99.40;;;;;;4870875;29;20209;-84
2022/05/30 01:36:45;;;;;;;1.97;1.87;;;5.90;99.00;;;;;;4873066;29;20259;-84
2022/05/30 01:39:33;;;;;;;2.10;1.80;;;5.90;98.50;;;;;;4873704;29;20209;-85
2022/05/30 01:42:10;;;;;;;3.03;1.70;;;5.80;98.60;;;;;;4870788;29;20231;-84
2022/05/30 01:44:38;;;;;;;4.13;1.70;;;5.80;98.60;;;;;;4872308;29;20212;-84
2022/05/30 01:47:10;;;;;;;1.60;1.50;;;5.80;98.40;;;;;;4867522;29;20208;-85
2022/05/30 01:49:46;;;;;;;2.83;1.97;;;5.80;98.40;;;;;;4865737;29;20209;-84
2022/05/30 01:52:33;;;;;;;2.00;1.80;;;5.70;98.50;;;;;;4863992;29;20271;-84
2022/05/30 01:55:00;;;;;;;4.03;1.70;;;5.70;98.70;;;;;;4868733;29;20219;-84
2022/05/30 01:57:34;;;;;;;2.10;1.90;;;5.80;98.70;;;;;;4864706;29;20232;-85
2022/05/30 02:00:08;;;;;;;1.80;1.70;;;5.70;98.70;;;;;;4872272;29;20300;-84
2022/05/30 02:02:40;;;;;;;2.73;1.60;;;5.60;98.50;;;;;;4912111;29;20210;-85
2022/05/30 02:05:08;;;;;;;2.03;1.80;;;5.60;98.60;;;;;;4945902;28;20210;-84
2022/05/30 02:07:46;;;;;;;5.37;1.90;;;5.70;98.80;;;;;;4969922;28;20211;-87
2022/05/30 02:10:13;;;;;;;3.03;1.60;;;5.60;99.10;;;;;;4970856;28;20273;-84
2022/05/30 02:12:40;;;;;;;3.60;2.00;;;5.50;98.80;;;;;;4969186;28;20236;-87
2022/05/30 02:15:12;;;;;;;1.93;1.80;;;5.50;98.90;;;;;;4967522;28;20830;-84
2022/05/30 02:18:08;;;;;;;2.30;1.70;;;5.60;99.10;;;;;;4963598;28;20214;-84
2022/05/30 02:20:42;;;;;;;1.93;1.80;;;5.80;98.90;;;;;;4969211;28;20205;-85
2022/05/30 02:23:09;;;;;;;1.77;1.67;;;5.80;98.90;;;;;;4970856;28;20201;-84
2022/05/30 02:25:40;;;;;;;1.70;1.60;;;5.90;98.90;;;;;;4969213;28;20213;-84
2022/05/30 02:28:10;;;;;;;1.70;1.60;;;6.00;98.80;;;;;;4969155;28;20244;-84
2022/05/30 02:31:05;;;;;;;1.80;1.70;;;6.10;98.70;;;;;;4972189;28;20201;-84
2022/05/30 02:36:40;;;;;;;1.77;1.67;;;6.00;98.20;;;;;;4968473;28;20216;-85
2022/05/30 02:39:23;;;;;;;1.97;1.80;;;5.80;98.20;;;;;;4966792;28;20210;-84
2022/05/30 02:41:58;;;;;;;1.90;1.80;;;5.80;98.50;;;;;;4974108;28;20223;-84
2022/05/30 02:44:51;;;;;;;2.43;1.97;;;5.80;98.50;;;;;;4965002;28;20210;-84
2022/05/30 02:47:29;;;;;;;2.00;1.77;;;5.80;98.30;;;;;;4967035;28;20209;-84
2022/05/30 02:49:58;;;;;;;1.60;1.50;;;5.80;98.20;;;;;;4969449;28;20205;-86
2022/05/30 02:52:27;;;;;;;1.67;1.57;;;5.70;98.10;;;;;;4968199;28;20209;-84
2022/05/30 02:55:15;;;;;;;1.60;1.50;;;5.80;98.00;;;;;;4970193;28;20268;-85
2022/05/30 02:57:42;;;;;;;1.80;1.60;;;5.80;97.80;;;;;;4960008;29;20216;-85
2022/05/30 03:00:34;;;;;;;2.00;1.87;;;5.90;98.00;;;;;;4967437;28;20205;-84
2022/05/30 03:03:02;;;;;;;1.97;1.80;;;5.90;97.90;;;;;;4963321;28;20671;-85
2022/05/30 03:05:34;;;;;;;1.80;1.70;;;5.90;98.00;;;;;;4964230;28;20208;-85
2022/05/30 03:08:05;;;;;;;4.03;1.77;;;5.80;98.00;;;;;;4956642;28;20223;-85
2022/05/30 03:10:34;;;;;;;4.10;1.70;;;5.70;98.30;;;;;;4960956;28;20216;-85
2022/05/30 03:13:07;;;;;;;1.60;1.50;;;5.70;98.60;;;;;;4951915;28;20220;-84
2022/05/30 03:15:40;;;;;;;2.10;1.70;;;5.60;98.80;;;;;;4958482;29;20229;-84
2022/05/30 03:18:09;;;;;;;1.50;1.40;;;5.60;98.90;;;;;;4960795;28;20693;-85
2022/05/30 03:21:10;;;;;;;2.03;1.90;;;5.60;99.00;;;;;;4969374;28;20209;-85
2022/05/30 03:23:40;;;;;;;3.33;1.87;;;5.60;99.30;;;;;;4967701;28;20206;-85
2022/05/30 03:26:08;;;;;;;2.00;1.90;;;5.80;99.30;;;;;;4971620;28;20211;-84
2022/05/30 03:28:36;;;;;;;3.50;1.97;;;6.00;99.40;;;;;;4964479;28;20212;-84
2022/05/30 03:31:21;;;;;;;3.70;1.77;;;6.30;99.20;;;;;;4970057;28;20665;-84
2022/05/30 03:33:56;;;;;;;2.10;1.90;;;6.40;98.50;;;;;;4968843;28;20209;-86
2022/05/30 03:36:28;;;;;;;1.93;1.80;;;6.40;98.30;;;;;;4968092;28;20227;-84
2022/05/30 03:39:04;;;;;;;2.77;1.90;;;6.50;98.40;;;;;;4969317;28;20224;-88
2022/05/30 03:41:34;;;;;;;1.67;1.50;;;6.60;98.70;;;;;;4965699;28;20229;-84
2022/05/30 03:44:04;;;;;;;1.97;1.87;;;6.70;97.70;;;;;;4960900;28;20213;-84
2022/05/30 03:46:32;;;;;;;1.73;1.60;;;6.70;97.60;;;;;;4965505;28;20211;-84
2022/05/30 03:49:05;;;;;;;3.03;1.63;;;6.60;96.80;;;;;;4974855;28;20211;-85
2022/05/30 03:51:46;;;;;;;3.43;1.83;;;6.30;96.90;;;;;;4969875;28;20205;-86
2022/05/30 03:54:16;;;;;;;1.70;1.60;;;6.20;97.40;;;;;;4963947;28;20220;-85
2022/05/30 03:56:46;;;;;;;2.90;1.70;;;6.20;97.90;;;;;;4972815;28;20197;-84
2022/05/30 03:59:13;;;;;;;2.40;1.90;;;6.30;98.60;;;;;;4961077;29;20205;-84
2022/05/30 04:01:46;;;;;;;1.77;1.67;;;6.50;98.60;;;;;;4969409;28;20201;-84
2022/05/30 04:04:23;;;;;;;2.17;1.60;;;6.50;98.00;;;;;;4968264;28;20277;-87
2022/05/30 04:06:50;;;;;;;2.10;1.90;;;6.40;97.40;;;;;;4967288;28;20197;-87
2022/05/30 04:09:17;;;;;;;1.60;1.50;;;6.30;97.70;;;;;;4969520;28;20276;-84
2022/05/30 04:11:55;;;;;;;2.53;1.70;;;6.30;98.00;;;;;;4968304;28;20204;-84
2022/05/30 04:14:22;;;;;;;2.17;1.87;;;6.30;98.00;;;;;;4967061;28;20373;-84
2022/05/30 04:16:51;;;;;;;4.30;1.93;;;6.30;98.00;;;;;;4968353;29;20217;-85
2022/05/30 04:19:37;;;;;;;2.37;2.03;;;6.20;98.30;;;;;;4968062;28;20213;-84
2022/05/30 04:22:04;;;;;;;2.30;2.10;;;6.30;98.50;;;;;;4968085;28;20264;-86
2022/05/30 04:24:34;;;;;;;1.90;1.80;;;6.60;98.30;;;;;;4968029;29;20197;-84
2022/05/30 04:27:04;;;;;;;3.10;2.10;;;6.70;98.00;;;;;;4972574;28;20192;-84
2022/05/30 04:29:43;;;;;;;4.07;1.80;;;6.90;98.10;;;;;;4967039;28;20205;-85
2022/05/30 04:32:10;;;;;;;3.30;1.70;;;7.30;98.10;;;;;;4972330;28;20205;-85
2022/05/30 04:35:15;;;;;;;2.60;1.87;;;7.30;96.90;;;;;;4967412;28;20208;-84
2022/05/30 04:38:14;;;;;;;1.60;1.50;;;7.30;96.40;;;;;;4971500;28;20300;-85
2022/05/30 04:40:41;;;;;;;2.17;1.70;;;7.20;97.00;;;;;;4965847;29;20245;-84
2022/05/30 04:43:08;;;;;;;2.00;1.80;;;7.20;96.30;;;;;;4971775;28;20205;-85
2022/05/30 04:45:45;;;;;;;1.97;1.80;;;7.10;97.10;;;;;;4970733;28;20205;-84
2022/05/30 04:48:22;;;;;;;2.10;1.90;;;7.20;97.70;;;;;;4966521;28;20268;-85
2022/05/30 04:50:59;;;;;;;4.50;1.63;;;7.00;97.50;;;;;;4956598;29;20213;-84
2022/05/30 04:53:42;;;;;;;2.00;1.80;;;7.10;97.80;;;;;;4970855;28;20260;-84
2022/05/30 04:56:10;;;;;;;2.87;1.70;;;7.30;98.00;;;;;;4971538;28;20215;-84
2022/05/30 04:58:37;;;;;;;1.90;1.70;;;7.60;97.50;;;;;;4967842;28;20213;-84
2022/05/30 05:01:06;;;;;;;2.87;1.90;;;7.70;97.20;;;;;;4975930;28;20311;-84
2022/05/30 05:03:42;;;;;;;2.23;2.00;;;8.00;96.40;;;;;;4983159;28;20223;-84
2022/05/30 05:06:18;;;;;;;4.93;1.80;;;8.20;96.40;;;;;;4965344;28;20201;-85
2022/05/30 05:09:48;;;;;;;2.50;1.93;;;8.40;95.80;;;;;;4976317;28;20197;-85
2022/05/30 05:12:32;;;;;;;2.65;2.00;;;8.60;94.80;;;;;;4968767;28;20220;-84
2022/05/30 05:15:12;;;;;;;3.35;2.20;;;8.40;94.30;;;;;;4968478;29;20223;-87
2022/05/30 05:17:39;;;;;;;3.78;2.55;;;8.20;95.70;;;;;;4973011;28;20260;-84
2022/05/30 05:20:19;;;;;;;3.08;2.25;;;8.30;96.20;;;;;;4975017;28;20201;-84
2022/05/30 05:26:57;;;;;;;4.53;2.22;;;8.40;96.80;;;;;;4976985;28;20192;-86
2022/05/30 05:29:37;;;;;;;2.28;2.08;;;8.70;95.80;;;;;;4961357;29;20201;-85
2022/05/30 05:49:54;;;;;;;3.17;1.88;;;10.70;90.40;;;;;;4891928;29;20244;-87
2022/05/30 06:09:17;;;;;;;2.63;1.80;;;10.30;90.30;;;;;;4966600;28;20205;-89
2022/05/30 06:22:39;;;;;;;2.25;1.98;;;9.90;93.50;;;;;;4916689;29;20207;-87
2022/05/30 06:25:08;;;;;;;5.75;2.42;;;10.00;93.60;;;;;;4917546;29;20207;-86
2022/05/30 06:27:41;;;;;;;2.67;2.15;;;10.10;93.10;;;;;;4947414;28;20201;-87
2022/05/30 06:30:35;;;;;;;2.60;2.40;;;10.10;93.10;;;;;;4977120;28;20213;-86
2022/05/30 06:33:10;;;;;;;4.07;2.33;;;9.90;94.00;;;;;;4964340;28;20197;-86
2022/05/30 06:39:44;;;;;;;3.65;2.75;;;10.00;94.70;;;;;;4954088;28;20263;-87
2022/05/30 06:45:54;;;;;;;3.47;2.88;;;10.10;93.90;;;;;;4971422;28;20256;-87
2022/05/30 06:59:26;;;;;;;3.45;2.65;;;10.70;93.10;;;;;;4831698;29;20237;-87
2022/05/30 08:23:00;;;;;;;2.78;1.65;;;17.40;35.90;;;;;;4971103;28;20208;-86
2022/05/30 08:26:09;;;;;;;1.90;1.70;;;20.30;23.60;;;;;;4958878;28;20193;-85
2022/05/30 08:28:46;;;;;;;2.13;1.77;;;22.60;18.00;;;;;;4957198;28;20216;-82
2022/05/30 08:31:22;;;;;;;2.10;1.40;;;23.20;16.40;;;;;;4957063;28;20259;-84
2022/05/30 08:34:21;;;;;;;1.52;1.42;;;21.20;19.30;;;;;;4955014;28;20209;-84
2022/05/30 08:36:48;;;;;;;2.35;1.70;;;20.10;22.10;;;;;;4959547;28;20219;-87
2022/05/30 08:42:08;;;;;;;1.85;1.70;;;18.90;23.20;;;;;;4980901;28;20228;-86
2022/05/30 08:44:40;;;;;;;1.60;1.50;;;19.00;24.70;;;;;;4957673;28;20212;-84
2022/05/30 08:47:16;;;;;;;3.28;1.63;;;19.70;21.20;;;;;;4957265;28;20201;-86
2022/05/30 08:49:49;;;;;;;3.10;2.90;;;19.60;21.40;;;;;;4964801;28;20204;-87
2022/05/30 08:52:37;;;;;;;2.45;1.50;;;19.40;21.40;;;;;;4962857;28;20198;-85
2022/05/30 08:55:41;;;;;;;1.70;1.60;;;20.20;20.00;;;;;;4954017;28;21377;-84
2022/05/30 08:58:25;;;;;;;1.73;1.60;;;20.40;19.90;;;;;;4956978;28;20275;-85
2022/05/30 09:01:04;;;;;;;1.50;1.40;;;19.90;20.20;;;;;;4952652;28;20201;-87
2022/05/30 09:03:39;;;;;;;1.85;1.50;;;19.20;21.20;;;;;;4972170;28;20193;-86
2022/05/30 09:06:15;;;;;;;1.50;1.40;;;18.40;23.70;;;;;;4974487;28;20675;-87
2022/05/30 09:09:06;;;;;;;2.75;1.30;;;18.80;23.50;;;;;;4963722;28;20218;-84
2022/05/30 09:12:15;;;;;;;2.35;1.45;;;20.40;20.60;;;;;;4954882;28;20668;-82
2022/05/30 09:15:02;;;;;;;1.90;1.67;;;22.90;17.50;;;;;;4953072;28;20208;-83
2022/05/30 09:17:50;;;;;;;1.67;1.58;;;24.30;13.70;;;;;;4955775;28;20208;-83
2022/05/30 09:20:57;;;;;;;2.38;1.70;;;25.10;13.30;;;;;;4956469;28;20212;-84
2022/05/30 09:23:28;;;;;;;2.42;1.80;;;26.30;10.10;;;;;;4956870;28;20291;-83
2022/05/30 09:26:16;;;;;;;1.65;1.55;;;24.80;12.60;;;;;;4959972;28;20201;-83
2022/05/30 09:28:55;;;;;;;1.88;1.60;;;24.90;14.10;;;;;;4957145;28;20212;-84
2022/05/30 09:31:38;;;;;;;2.80;2.10;;;23.60;15.20;;;;;;4959261;28;20205;-84
2022/05/30 09:34:38;;;;;;;1.85;1.73;;;24.80;14.10;;;;;;4962308;28;20201;-84
2022/05/30 09:37:24;;;;;;;2.50;1.90;;;26.00;11.30;;;;;;4961053;28;20208;-85
2022/05/30 09:39:52;;;;;;;1.83;1.73;;;26.60;10.90;;;;;;4963156;28;20224;-82
2022/05/30 09:42:25;;;;;;;1.88;1.75;;;25.40;11.30;;;;;;4966792;28;20317;-82
2022/05/30 09:44:56;;;;;;;2.83;1.90;;;24.00;13.50;;;;;;4969263;28;20209;-81
2022/05/30 09:47:23;;;;;;;2.95;1.90;;;24.40;12.70;;;;;;4976794;28;20233;-82
2022/05/30 09:49:52;;;;;;;2.40;1.80;;;23.30;13.10;;;;;;4975035;28;20211;-81
2022/05/30 09:52:40;;;;;;;1.92;1.60;;;22.60;15.80;;;;;;4973594;28;20205;-84
2022/05/30 09:55:31;;;;;;;2.28;2.08;;;21.30;18.00;;;;;;4970425;28;20201;-85
2022/05/30 09:58:04;;;;;;;2.05;1.85;;;20.10;18.50;;;;;;4969540;28;20197;-88
2022/05/30 10:01:04;;;;;;;2.10;1.90;;;19.10;20.10;;;;;;4976072;28;20209;-89
2022/05/30 10:03:38;;;;;;;2.33;1.88;;;18.80;21.90;;;;;;4955128;28;20223;-86
2022/05/30 10:06:19;;;;;;;2.05;1.85;;;20.40;19.40;;;;;;4959730;28;20197;-83
2022/05/30 10:09:10;;;;;;;2.17;1.70;;;22.50;14.40;;;;;;4957522;28;20688;-83
2022/05/30 10:12:01;;;;;;;2.10;1.90;;;23.80;15.20;;;;;;4958842;28;20208;-85
2022/05/30 10:14:32;;;;;;;2.15;1.83;;;24.80;14.10;;;;;;4954338;28;20208;-84
2022/05/30 10:17:13;;;;;;;2.53;2.22;;;25.90;12.00;;;;;;4961277;28;20224;-85
2022/05/30 10:19:48;;;;;;;2.60;2.00;;;26.10;11.10;;;;;;4961346;28;20223;-83
2022/05/30 10:28:50;;;;;;;2.65;2.30;;;23.20;18.50;;;;;;4952147;28;20623;-83
2022/05/30 10:31:43;;;;;;;2.13;1.90;;;23.00;15.30;;;;;;4937976;28;20208;-83
2022/05/30 10:34:51;;;;;;;2.83;2.00;;;23.80;15.40;;;;;;4961944;28;20569;-83
2022/05/30 10:37:46;;;;;;;2.80;2.40;;;23.90;13.50;;;;;;4959657;28;20201;-84
2022/05/30 10:40:30;;;;;;;2.92;2.20;;;24.20;13.70;;;;;;4961435;28;20231;-84
2022/05/30 10:43:03;;;;;;;2.60;2.40;;;24.40;13.80;;;;;;4963974;28;20291;-84
2022/05/30 10:45:51;;;;;;;2.20;2.00;;;24.40;13.80;;;;;;4960526;28;20200;-83
2022/05/30 10:48:54;;;;;;;7.78;2.30;;;24.70;14.50;;;;;;4956232;28;20652;-84
2022/05/30 10:51:23;;;;;;;2.38;2.17;;;23.10;13.00;;;;;;4958307;28;20216;-85
2022/05/30 10:54:05;;;;;;;3.15;2.40;;;24.70;14.00;;;;;;4949541;28;20200;-84
2022/05/30 10:56:36;;;;;;;2.22;2.03;;;24.50;13.90;;;;;;4961221;28;20280;-84
2022/05/30 10:59:57;;;;;;;4.65;1.88;;;25.80;12.70;;;;;;4959696;28;20219;-83
2022/05/30 11:02:50;;;;;;;2.63;2.08;;;25.50;12.80;;;;;;4953025;28;20211;-83
2022/05/30 11:05:26;;;;;;;2.50;2.30;;;22.20;15.00;;;;;;4959856;28;20200;-84
2022/05/30 11:08:15;;;;;;;3.90;2.03;;;21.40;16.00;;;;;;4958835;28;20216;-84
2022/05/30 12:03:49;;;;;;;3.72;2.17;;;19.20;19.70;;;;;;4825866;29;20225;-89
2022/05/30 13:29:15;;;;;;;2.75;1.60;;;17.90;20.00;;;;;;4905637;29;20256;-88
2022/05/30 15:51:29;;;;;;;;;;;;;;;;;;;;;
2022/05/30 16:01:27;;;;;;;5.45;1.90;;;17.20;21.40;;;;;;4871627;29;20232;-88
2022/05/30 19:43:57;;;;;;;3.33;2.65;;;12.90;62.10;;;;;;5330137;23;20250;-88
2022/05/30 19:46:33;;;;;;;5.00;2.60;;;12.80;63.30;;;;;;4965078;29;20213;-89
2022/05/30 19:52:25;;;;;;;3.25;2.30;;;12.90;67.20;;;;;;4965239;28;20220;-89
2022/05/30 19:55:08;;;;;;;3.70;2.80;;;12.80;68.90;;;;;;4968392;28;20271;-89
2022/05/30 19:57:48;;;;;;;2.85;2.17;;;12.80;71.30;;;;;;4967800;28;20236;-90
2022/05/30 20:00:36;;;;;;;3.65;2.45;;;12.70;71.80;;;;;;4967115;28;20233;-89
2022/05/30 20:03:29;;;;;;;3.22;2.20;;;12.60;74.80;;;;;;4965831;28;20260;-90
2022/05/30 20:05:56;;;;;;;3.80;2.25;;;12.50;75.50;;;;;;4962783;28;20248;-89
2022/05/30 20:08:46;;;;;;;3.97;2.33;;;12.50;75.50;;;;;;4964529;28;20216;-90
2022/05/30 20:11:35;;;;;;;2.55;2.15;;;12.40;76.60;;;;;;4963961;28;20209;-91
2022/05/30 20:17:49;;;;;;;4.18;2.95;;;12.30;79.10;;;;;;4960941;28;20207;-90
2022/05/30 20:20:24;;;;;;;5.43;2.65;;;12.40;80.60;;;;;;4961890;28;20229;-90
2022/05/30 20:23:28;;;;;;;3.35;2.30;;;12.40;80.70;;;;;;4966103;28;20211;-90
2022/05/30 20:26:20;;;;;;;7.35;2.50;;;12.40;81.40;;;;;;4967615;28;20221;-92
2022/05/30 20:29:07;;;;;;;2.95;2.65;;;12.30;81.70;;;;;;4965832;28;20202;-90
2022/05/30 20:32:01;;;;;;;3.17;2.42;;;12.20;82.50;;;;;;4965926;28;20213;-91
2022/05/30 20:34:35;;;;;;;4.05;2.70;;;12.20;83.10;;;;;;4967937;28;20233;-94
2022/05/30 20:43:16;;;;;;;4.53;2.85;;;12.10;85.50;;;;;;4947981;29;20208;-89
2022/05/30 20:49:23;;;;;;;4.55;3.00;;;11.90;87.90;;;;;;4951280;29;20276;-89
2022/05/30 20:55:17;;;;;;;5.25;2.70;;;11.80;90.10;;;;;;4954642;29;20193;-89
2022/05/30 21:24:34;;;;;;;5.78;3.08;;;11.30;92.30;;;;;;4948584;29;20200;-91
2022/05/30 21:30:28;;;;;;;5.18;3.08;;;11.20;92.50;;;;;;4969600;29;20184;-89
2022/05/30 21:39:46;;;;;;;3.08;2.70;;;11.10;93.10;;;;;;4945971;29;20221;-89
2022/05/30 21:42:21;;;;;;;4.85;2.75;;;11.00;92.90;;;;;;4948476;29;20293;-88
2022/05/30 21:48:19;;;;;;;3.75;2.60;;;11.00;93.30;;;;;;4948599;29;20197;-89
2022/05/30 21:54:12;;;;;;;5.22;2.83;;;11.00;93.60;;;;;;4945469;29;20185;-89
2022/05/30 22:06:48;;;;;;;5.07;2.80;;;10.80;94.10;;;;;;4947070;29;20193;-89
2022/05/30 22:10:10;;;;;;;6.07;2.90;;;10.60;94.10;;;;;;4946446;29;20198;-89
2022/05/30 22:23:34;;;;;;;3.97;2.42;;;10.30;95.20;;;;;;4946184;29;20193;-89
2022/05/30 22:26:10;;;;;;;3.38;2.70;;;10.30;95.20;;;;;;4935332;29;20207;-89
2022/05/30 22:29:16;;;;;;;2.92;2.50;;;10.20;95.40;;;;;;4927274;29;20204;-89
2022/05/30 22:31:47;;;;;;;3.63;3.17;;;10.30;95.80;;;;;;4946796;29;20297;-89
2022/05/30 22:41:30;;;;;;;3.80;2.28;;;10.20;95.80;;;;;;4947607;29;20261;-88
2022/05/30 22:43:59;;;;;;;3.88;2.45;;;10.20;95.30;;;;;;4945676;29;20209;-89
2022/05/30 22:53:11;;;;;;;2.58;2.35;;;10.10;95.30;;;;;;4941031;29;20666;-89
2022/05/30 22:55:39;;;;;;;4.72;2.28;;;10.10;95.30;;;;;;4949392;29;20544;-90
2022/05/30 22:58:24;;;;;;;2.28;2.08;;;10.00;95.20;;;;;;4942617;29;20201;-89
2022/05/30 23:04:22;;;;;;;2.40;2.20;;;10.00;95.20;;;;;;4943353;29;20773;-89
2022/05/30 23:06:49;;;;;;;2.38;2.17;;;10.00;95.50;;;;;;4943242;29;20211;-90
2022/05/30 23:09:35;;;;;;;2.58;2.22;;;9.90;96.10;;;;;;4943681;29;20204;-89
2022/05/30 23:15:49;;;;;;;2.40;2.20;;;9.90;96.10;;;;;;4934402;29;20193;-89
2022/05/30 23:18:36;;;;;;;4.20;2.00;;;9.90;96.10;;;;;;4943646;29;20202;-89
2022/05/30 23:21:08;;;;;;;2.50;2.20;;;9.80;95.80;;;;;;4940375;29;20304;-90
2022/05/30 23:23:35;;;;;;;3.60;2.13;;;9.80;96.10;;;;;;4937507;29;20216;-90
2022/05/30 23:26:23;;;;;;;4.10;2.20;;;9.70;96.00;;;;;;4943672;29;20703;-90
2022/05/30 23:28:51;;;;;;;2.40;2.20;;;9.80;96.10;;;;;;4942185;29;20655;-91
2022/05/30 23:31:42;;;;;;;2.30;2.10;;;9.70;95.90;;;;;;4941830;29;20239;-89
2022/05/30 23:34:35;;;;;;;3.05;2.00;;;9.60;96.00;;;;;;4943975;29;20198;-90
2022/05/30 23:37:11;;;;;;;2.30;2.10;;;9.60;96.00;;;;;;4940669;29;20205;-89
2022/05/30 23:39:47;;;;;;;2.30;2.10;;;9.60;96.00;;;;;;4944658;28;20663;-89
2022/05/30 23:45:15;;;;;;;2.22;2.05;;;9.50;96.00;;;;;;4957118;29;20205;-90
2022/05/30 23:48:18;;;;;;;2.13;1.90;;;9.50;96.00;;;;;;4941182;29;20211;-89
2022/05/30 23:51:10;;;;;;;2.95;1.95;;;9.40;96.00;;;;;;4943088;29;20209;-89
2022/05/30 23:53:41;;;;;;;2.65;1.80;;;9.40;96.00;;;;;;4946199;29;20637;-90
2022/05/30 23:56:23;;;;;;;4.78;2.10;;;9.30;96.00;;;;;;4945558;29;20210;-90
2022/05/30 23:58:53;;;;;;;3.40;1.75;;;9.30;96.00;;;;;;4941679;29;20293;-89
